createdAt,value
2019-04-19T00:00:30.783Z,863.03
2019-04-19T00:01:35.299Z,863.02
2019-04-19T00:02:37.764Z,862.99
2019-04-19T00:03:34.063Z,862.98
2019-04-19T00:04:31.206Z,863.01
2019-04-19T00:05:35.233Z,862.98
2019-04-19T00:06:35.622Z,863.00
2019-04-19T00:07:30.614Z,862.98
2019-04-19T00:08:42.654Z,862.98
2019-04-19T00:09:41.519Z,862.99
2019-04-19T00:10:39.578Z,862.95
2019-04-19T00:11:37.713Z,862.96
2019-04-19T00:12:40.351Z,862.95
2019-04-19T00:13:28.961Z,862.94
2019-04-19T00:14:29.646Z,862.94
2019-04-19T00:15:28.789Z,862.94
2019-04-19T00:16:29.790Z,863.00
2019-04-19T00:17:32.318Z,862.95
2019-04-19T00:18:28.353Z,862.93
2019-04-19T00:19:44.441Z,862.95
2019-04-19T00:20:49.931Z,862.92
2019-04-19T00:21:53.763Z,862.96
2019-04-19T00:22:44.210Z,862.93
2019-04-19T00:23:34.803Z,862.93
2019-04-19T00:24:27.543Z,862.93
2019-04-19T00:25:27.987Z,862.93
2019-04-19T00:26:27.554Z,862.93
2019-04-19T00:27:35.251Z,862.91
2019-04-19T00:28:36.645Z,862.91
2019-04-19T00:29:37.906Z,862.92
2019-04-19T00:30:37.694Z,862.92
2019-04-19T00:31:37.299Z,862.91
2019-04-19T00:32:40.638Z,862.90
2019-04-19T00:33:34.433Z,862.89
2019-04-19T00:34:27.309Z,862.90
2019-04-19T00:35:26.468Z,862.87
2019-04-19T00:36:26.002Z,862.93
2019-04-19T00:37:26.828Z,862.91
2019-04-19T00:38:38.343Z,862.87
2019-04-19T00:39:41.360Z,862.93
2019-04-19T00:40:38.175Z,862.92
2019-04-19T00:41:42.125Z,862.88
2019-04-19T00:42:40.008Z,862.87
2019-04-19T00:43:40.817Z,862.88
2019-04-19T00:44:45.452Z,862.85
2019-04-19T00:45:38.516Z,862.87
2019-04-19T00:46:38.453Z,862.85
2019-04-19T00:47:41.148Z,862.86
2019-04-19T00:48:39.627Z,862.85
2019-04-19T00:49:33.884Z,862.90
2019-04-19T00:50:38.092Z,862.86
2019-04-19T00:51:46.155Z,862.86
2019-04-19T00:52:42.128Z,862.89
2019-04-19T00:53:32.941Z,862.83
2019-04-19T00:54:31.997Z,862.82
2019-04-19T00:55:36.088Z,862.83
2019-04-19T00:56:33.568Z,862.84
2019-04-19T00:57:33.684Z,862.82
2019-04-19T00:58:29.061Z,862.85
2019-04-19T00:59:24.404Z,862.87
2019-04-19T01:00:30.229Z,862.84
2019-04-19T01:01:26.120Z,862.83
2019-04-19T01:02:24.531Z,862.87
2019-04-19T01:03:30.745Z,862.87
2019-04-19T01:04:25.677Z,862.86
2019-04-19T01:05:27.026Z,862.86
2019-04-19T01:06:33.007Z,862.86
2019-04-19T01:07:29.309Z,862.85
2019-04-19T01:08:24.817Z,862.82
2019-04-19T01:09:33.386Z,862.76
2019-04-19T01:10:34.503Z,862.82
2019-04-19T01:11:33.990Z,862.79
2019-04-19T01:12:34.530Z,862.78
2019-04-19T01:13:38.169Z,862.75
2019-04-19T01:14:33.343Z,862.75
2019-04-19T01:15:29.716Z,862.74
2019-04-19T01:16:29.466Z,862.72
2019-04-19T01:17:34.979Z,862.72
2019-04-19T01:18:33.166Z,862.74
2019-04-19T01:19:21.501Z,862.73
2019-04-19T01:20:20.506Z,862.71
2019-04-19T01:21:20.213Z,862.74
2019-04-19T01:22:23.917Z,862.73
2019-04-19T01:23:21.286Z,862.77
2019-04-19T01:24:26.471Z,862.75
2019-04-19T01:25:24.065Z,862.75
2019-04-19T01:26:19.943Z,862.77
2019-04-19T01:27:24.840Z,862.78
2019-04-19T01:28:22.965Z,862.79
2019-04-19T01:29:21.203Z,862.77
2019-04-19T01:30:28.786Z,862.77
2019-04-19T01:31:22.480Z,862.78
2019-04-19T01:32:21.141Z,862.78
2019-04-19T01:33:24.851Z,862.77
2019-04-19T01:34:24.899Z,862.76
2019-04-19T01:35:20.267Z,862.77
2019-04-19T01:36:25.291Z,862.79
2019-04-19T01:37:23.291Z,862.76
2019-04-19T01:38:19.041Z,862.77
2019-04-19T01:39:30.973Z,862.76
2019-04-19T01:40:37.576Z,862.76
2019-04-19T01:41:33.746Z,862.78
2019-04-19T01:42:38.880Z,862.76
2019-04-19T01:43:34.336Z,862.78
2019-04-19T01:44:37.084Z,862.79
2019-04-19T01:45:29.145Z,862.76
2019-04-19T01:46:36.747Z,862.79
2019-04-19T01:47:38.924Z,862.77
2019-04-19T01:48:34.112Z,862.81
2019-04-19T01:49:29.969Z,862.80
2019-04-19T01:50:36.824Z,862.77
2019-04-19T01:51:38.873Z,862.77
2019-04-19T01:52:41.846Z,862.75
2019-04-19T01:53:33.507Z,862.77
2019-04-19T01:54:32.404Z,862.74
2019-04-19T01:55:23.602Z,862.75
2019-04-19T01:56:18.837Z,862.74
2019-04-19T01:57:17.338Z,862.76
2019-04-19T01:58:18.008Z,862.76
2019-04-19T01:59:15.982Z,862.77
2019-04-19T02:00:24.430Z,862.76
2019-04-19T02:01:20.603Z,862.77
2019-04-19T02:02:18.059Z,862.76
2019-04-19T02:03:14.812Z,862.79
2019-04-19T02:04:20.769Z,862.76
2019-04-19T02:05:17.886Z,862.76
2019-04-19T02:06:16.265Z,862.77
2019-04-19T02:07:21.751Z,862.74
2019-04-19T02:08:15.725Z,862.78
2019-04-19T02:09:25.969Z,862.75
2019-04-19T02:10:24.665Z,862.81
2019-04-19T02:11:27.927Z,862.77
2019-04-19T02:12:26.131Z,862.81
2019-04-19T02:13:21.894Z,862.82
2019-04-19T02:14:20.320Z,862.86
2019-04-19T02:15:24.632Z,862.84
2019-04-19T02:16:19.707Z,862.88
2019-04-19T02:17:16.037Z,862.88
2019-04-19T02:18:21.881Z,862.87
2019-04-19T02:19:18.867Z,862.87
2019-04-19T02:20:14.054Z,862.87
2019-04-19T02:21:19.736Z,862.90
2019-04-19T02:22:20.167Z,862.96
2019-04-19T02:23:14.634Z,862.95
2019-04-19T02:24:12.646Z,862.93
2019-04-19T02:25:15.947Z,862.94
2019-04-19T02:26:14.616Z,862.96
2019-04-19T02:27:13.477Z,862.98
2019-04-19T02:28:19.949Z,862.98
2019-04-19T02:29:19.054Z,862.99
2019-04-19T02:30:27.339Z,862.96
2019-04-19T02:31:37.860Z,862.98
2019-04-19T02:32:43.662Z,862.98
2019-04-19T02:33:45.544Z,862.94
2019-04-19T02:35:34.685Z,862.96
2019-04-19T02:36:48.316Z,863.02
2019-04-19T02:37:33.855Z,863.00
2019-04-19T02:38:36.455Z,863.00
2019-04-19T02:39:54.557Z,863.03
2019-04-19T02:40:52.555Z,863.02
2019-04-19T02:41:59.418Z,863.00
2019-04-19T02:42:40.095Z,863.04
2019-04-19T02:43:45.942Z,863.02
2019-04-19T02:44:45.861Z,863.04
2019-04-19T02:45:32.619Z,863.04
2019-04-19T02:49:53.556Z,863.07
2019-04-19T02:51:02.441Z,863.03
2019-04-19T02:51:36.688Z,863.07
2019-04-19T02:54:40.807Z,863.09
2019-04-19T02:55:31.566Z,863.10
2019-04-19T02:56:59.475Z,863.09
2019-04-19T02:57:52.284Z,863.14
2019-04-19T02:58:34.454Z,863.13
2019-04-19T02:59:41.014Z,863.11
2019-04-19T03:01:40.173Z,863.13
2019-04-19T03:02:42.374Z,863.12
2019-04-19T03:03:27.421Z,863.12
2019-04-19T03:04:47.887Z,863.12
2019-04-19T03:05:45.408Z,863.14
2019-04-19T03:06:24.167Z,863.12
2019-04-19T03:07:09.131Z,863.09
2019-04-19T03:08:06.475Z,863.12
2019-04-19T03:09:07.215Z,863.12
2019-04-19T03:10:12.888Z,863.09
2019-04-19T03:11:12.852Z,863.11
2019-04-19T03:12:26.638Z,863.09
2019-04-19T03:13:21.762Z,863.11
2019-04-19T03:14:18.046Z,863.10
2019-04-19T03:15:19.076Z,863.13
2019-04-19T03:16:27.093Z,863.13
2019-04-19T03:17:23.274Z,863.12
2019-04-19T03:18:29.083Z,863.15
2019-04-19T03:19:13.404Z,863.11
2019-04-19T03:20:24.395Z,863.11
2019-04-19T03:21:27.843Z,863.13
2019-04-19T03:22:24.347Z,863.12
2019-04-19T03:23:17.864Z,863.14
2019-04-19T03:24:20.396Z,863.10
2019-04-19T03:25:19.778Z,863.15
2019-04-19T03:26:22.053Z,863.14
2019-04-19T03:27:12.476Z,863.15
2019-04-19T03:28:15.497Z,863.17
2019-04-19T03:29:10.986Z,863.19
2019-04-19T03:30:27.113Z,863.18
2019-04-19T03:31:32.465Z,863.18
2019-04-19T03:32:59.673Z,863.20
2019-04-19T03:33:25.385Z,863.19
2019-04-19T03:34:31.087Z,863.22
2019-04-19T03:35:14.497Z,863.18
2019-04-19T03:36:25.819Z,863.19
2019-04-19T03:37:25.613Z,863.18
2019-04-19T03:38:18.632Z,863.18
2019-04-19T03:39:22.944Z,863.16
2019-04-19T03:40:24.679Z,863.16
2019-04-19T03:41:38.885Z,863.18
2019-04-19T03:42:22.395Z,863.17
2019-04-19T03:43:28.549Z,863.20
2019-04-19T03:44:18.458Z,863.21
2019-04-19T03:45:17.410Z,863.23
2019-04-19T03:46:17.367Z,863.22
2019-04-19T03:47:21.312Z,863.24
2019-04-19T03:48:22.344Z,863.26
2019-04-19T03:49:32.568Z,863.22
2019-04-19T03:50:20.028Z,863.24
2019-04-19T03:51:18.584Z,863.19
2019-04-19T03:52:21.924Z,863.19
2019-04-19T03:53:25.996Z,863.16
2019-04-19T03:54:17.998Z,863.20
2019-04-19T03:55:20.292Z,863.20
2019-04-19T03:56:17.828Z,863.20
2019-04-19T03:57:17.018Z,863.20
2019-04-19T03:58:07.371Z,863.25
2019-04-19T03:59:00.699Z,863.25
2019-04-19T04:00:00.375Z,863.22
2019-04-19T04:01:00.076Z,863.23
2019-04-19T04:02:01.037Z,863.25
2019-04-19T04:03:03.228Z,863.27
2019-04-19T04:04:07.401Z,863.27
2019-04-19T04:05:06.060Z,863.25
2019-04-19T04:05:59.958Z,863.24
2019-04-19T04:07:05.420Z,863.28
2019-04-19T04:08:04.376Z,863.23
2019-04-19T04:09:03.303Z,863.27
2019-04-19T04:10:01.035Z,863.27
2019-04-19T04:11:00.164Z,863.27
2019-04-19T04:12:09.223Z,863.27
2019-04-19T04:13:15.805Z,863.30
2019-04-19T04:14:12.545Z,863.31
2019-04-19T04:15:11.818Z,863.30
2019-04-19T04:16:12.826Z,863.32
2019-04-19T04:16:58.478Z,863.29
2019-04-19T04:17:58.532Z,863.34
2019-04-19T04:18:57.610Z,863.33
2019-04-19T04:19:57.213Z,863.31
2019-04-19T04:20:59.028Z,863.36
2019-04-19T04:21:57.349Z,863.34
2019-04-19T04:23:06.929Z,863.34
2019-04-19T04:24:10.250Z,863.33
2019-04-19T04:25:07.559Z,863.32
2019-04-19T04:26:04.327Z,863.34
2019-04-19T04:27:05.777Z,863.34
2019-04-19T04:28:03.774Z,863.32
2019-04-19T04:29:06.943Z,863.36
2019-04-19T04:30:06.040Z,863.32
2019-04-19T04:31:05.926Z,863.34
2019-04-19T04:32:05.386Z,863.33
2019-04-19T04:33:05.247Z,863.33
2019-04-19T04:34:06.054Z,863.33
2019-04-19T04:35:13.661Z,863.32
2019-04-19T04:36:19.758Z,863.33
2019-04-19T04:37:15.667Z,863.36
2019-04-19T04:38:05.985Z,863.36
2019-04-19T04:38:54.768Z,863.34
2019-04-19T04:39:55.619Z,863.39
2019-04-19T04:40:54.790Z,863.40
2019-04-19T04:42:09.771Z,863.39
2019-04-19T04:43:09.392Z,863.40
2019-04-19T04:44:13.474Z,863.39
2019-04-19T04:45:18.828Z,863.44
2019-04-19T04:46:32.702Z,863.43
2019-04-19T04:47:15.382Z,863.49
2019-04-19T04:48:08.765Z,863.49
2019-04-19T04:49:26.964Z,863.47
2019-04-19T04:50:05.265Z,863.50
2019-04-19T04:51:21.070Z,863.51
2019-04-19T04:52:04.527Z,863.56
2019-04-19T04:52:54.327Z,863.53
2019-04-19T04:53:53.303Z,863.51
2019-04-19T04:54:52.710Z,863.48
2019-04-19T04:55:57.965Z,863.51
2019-04-19T04:57:02.490Z,863.49
2019-04-19T04:57:57.226Z,863.52
2019-04-19T04:58:52.772Z,863.56
2019-04-19T04:59:54.239Z,863.53
2019-04-19T05:01:00.074Z,863.55
2019-04-19T05:02:02.526Z,863.57
2019-04-19T05:03:06.507Z,863.59
2019-04-19T05:04:07.403Z,863.58
2019-04-19T05:05:10.460Z,863.63
2019-04-19T05:06:11.187Z,863.61
2019-04-19T05:07:09.731Z,863.64
2019-04-19T05:08:13.970Z,863.66
2019-04-19T05:09:10.708Z,863.65
2019-04-19T05:10:10.807Z,863.69
2019-04-19T05:11:13.410Z,863.66
2019-04-19T05:12:15.501Z,863.69
2019-04-19T05:15:05.672Z,863.71
2019-04-19T05:16:17.000Z,863.69
2019-04-19T05:17:19.485Z,863.69
2019-04-19T05:18:17.315Z,863.69
2019-04-19T05:19:03.908Z,863.70
2019-04-19T05:20:10.017Z,863.71
2019-04-19T05:21:09.990Z,863.73
2019-04-19T05:22:05.851Z,863.76
2019-04-19T05:23:06.832Z,863.73
2019-04-19T05:24:09.344Z,863.76
2019-04-19T05:25:23.792Z,863.79
2019-04-19T05:26:11.944Z,863.84
2019-04-19T05:27:11.849Z,863.84
2019-04-19T05:28:11.373Z,863.82
2019-04-19T05:29:03.133Z,863.85
2019-04-19T05:29:51.575Z,863.87
2019-04-19T05:30:55.741Z,863.86
2019-04-19T05:31:52.951Z,863.91
2019-04-19T05:32:57.987Z,863.90
2019-04-19T05:34:11.205Z,863.88
2019-04-19T05:35:07.003Z,863.91
2019-04-19T05:36:12.748Z,863.88
2019-04-19T05:37:03.818Z,863.87
2019-04-19T05:38:03.413Z,863.86
2019-04-19T05:39:11.299Z,863.89
2019-04-19T05:40:04.782Z,863.88
2019-04-19T05:41:00.704Z,863.90
2019-04-19T05:42:00.095Z,863.90
2019-04-19T05:43:04.395Z,863.95
2019-04-19T05:45:20.746Z,863.93
2019-04-19T05:46:09.800Z,863.98
2019-04-19T05:47:04.689Z,863.98
2019-04-19T05:47:55.901Z,864.01
2019-04-19T05:48:53.635Z,864.00
2019-04-19T05:50:12.372Z,864.02
2019-04-19T05:51:16.766Z,863.99
2019-04-19T05:52:09.202Z,863.99
2019-04-19T05:52:58.559Z,864.04
2019-04-19T05:53:51.342Z,863.99
2019-04-19T05:54:45.116Z,864.02
2019-04-19T05:55:45.605Z,864.00
2019-04-19T05:56:50.451Z,864.01
2019-04-19T05:57:56.866Z,864.03
2019-04-19T05:58:55.768Z,864.08
2019-04-19T05:59:53.962Z,864.09
2019-04-19T06:00:58.162Z,864.09
2019-04-19T06:01:59.193Z,864.08
2019-04-19T06:02:59.922Z,864.09
2019-04-19T06:03:58.626Z,864.10
2019-04-19T06:05:13.075Z,864.10
2019-04-19T06:06:08.213Z,864.11
2019-04-19T06:07:01.634Z,864.14
2019-04-19T06:07:57.042Z,864.10
2019-04-19T06:08:44.480Z,864.13
2019-04-19T06:09:43.148Z,864.14
2019-04-19T06:10:49.705Z,864.12
2019-04-19T06:11:44.682Z,864.14
2019-04-19T06:12:43.769Z,864.10
2019-04-19T06:13:51.949Z,864.12
2019-04-19T06:15:12.401Z,864.13
2019-04-19T06:16:04.201Z,864.11
2019-04-19T06:16:56.539Z,864.12
2019-04-19T06:18:04.106Z,864.15
2019-04-19T06:18:52.965Z,864.13
2019-04-19T06:19:57.637Z,864.14
2019-04-19T06:21:04.463Z,864.11
2019-04-19T06:21:55.968Z,864.14
2019-04-19T06:23:03.433Z,864.14
2019-04-19T06:23:58.400Z,864.17
2019-04-19T06:24:57.093Z,864.16
2019-04-19T06:26:22.715Z,864.14
2019-04-19T06:27:08.616Z,864.14
2019-04-19T06:28:12.747Z,864.16
2019-04-19T06:30:08.781Z,864.18
2019-04-19T06:30:56.105Z,864.14
2019-04-19T06:32:03.597Z,864.17
2019-04-19T06:33:02.345Z,864.16
2019-04-19T06:33:57.924Z,864.20
2019-04-19T06:34:54.012Z,864.16
2019-04-19T06:35:48.530Z,864.19
2019-04-19T06:36:39.974Z,864.20
2019-04-19T06:37:40.475Z,864.19
2019-04-19T06:38:40.127Z,864.19
2019-04-19T06:39:39.516Z,864.24
2019-04-19T06:40:45.151Z,864.21
2019-04-19T06:41:47.043Z,864.19
2019-04-19T06:42:46.385Z,864.20
2019-04-19T06:43:52.076Z,864.19
2019-04-19T06:45:02.002Z,864.21
2019-04-19T06:45:53.198Z,864.20
2019-04-19T06:46:51.396Z,864.22
2019-04-19T06:47:48.334Z,864.19
2019-04-19T06:48:43.483Z,864.17
2019-04-19T06:49:40.021Z,864.15
2019-04-19T06:50:41.963Z,864.16
2019-04-19T06:51:45.579Z,864.19
2019-04-19T06:52:38.441Z,864.18
2019-04-19T06:53:44.448Z,864.16
2019-04-19T06:54:41.590Z,864.17
2019-04-19T06:55:44.131Z,864.16
2019-04-19T06:56:41.313Z,864.20
2019-04-19T06:57:47.520Z,864.14
2019-04-19T06:58:44.455Z,864.17
2019-04-19T06:59:52.065Z,864.16
2019-04-19T07:00:50.422Z,864.17
2019-04-19T07:01:43.744Z,864.17
2019-04-19T07:02:37.052Z,864.16
2019-04-19T07:03:36.523Z,864.21
2019-04-19T07:04:46.130Z,864.19
2019-04-19T07:05:46.419Z,864.23
2019-04-19T07:06:48.103Z,864.19
2019-04-19T07:08:03.234Z,864.21
2019-04-19T07:10:02.645Z,864.15
2019-04-19T07:11:00.518Z,864.19
2019-04-19T07:11:56.464Z,864.21
2019-04-19T07:12:55.306Z,864.22
2019-04-19T07:13:45.074Z,864.21
2019-04-19T07:14:36.529Z,864.24
2019-04-19T07:16:02.360Z,864.20
2019-04-19T07:16:55.777Z,864.21
2019-04-19T07:17:52.347Z,864.25
2019-04-19T07:18:46.375Z,864.24
2019-04-19T07:19:50.004Z,864.27
2019-04-19T07:20:56.287Z,864.26
2019-04-19T07:21:51.785Z,864.31
2019-04-19T07:22:53.043Z,864.30
2019-04-19T07:23:54.610Z,864.32
2019-04-19T07:25:03.089Z,864.28
2019-04-19T07:25:55.533Z,864.30
2019-04-19T07:26:56.299Z,864.28
2019-04-19T07:27:44.288Z,864.29
2019-04-19T07:28:36.480Z,864.26
2019-04-19T07:29:33.650Z,864.31
2019-04-19T07:30:32.881Z,864.27
2019-04-19T07:31:35.267Z,864.28
2019-04-19T07:32:40.786Z,864.29
2019-04-19T07:33:44.017Z,864.31
2019-04-19T07:34:47.879Z,864.27
2019-04-19T07:35:57.607Z,864.34
2019-04-19T07:36:56.392Z,864.30
2019-04-19T07:37:46.955Z,864.33
2019-04-19T07:38:55.208Z,864.35
2019-04-19T07:40:04.139Z,864.35
2019-04-19T07:40:48.961Z,864.37
2019-04-19T07:41:52.247Z,864.36
2019-04-19T07:42:51.962Z,864.36
2019-04-19T07:43:48.222Z,864.37
2019-04-19T07:44:43.692Z,864.36
2019-04-19T07:45:52.617Z,864.36
2019-04-19T07:46:50.041Z,864.37
2019-04-19T07:47:42.756Z,864.41
2019-04-19T07:48:30.816Z,864.41
2019-04-19T07:49:42.154Z,864.41
2019-04-19T07:50:42.369Z,864.40
2019-04-19T07:51:35.923Z,864.42
2019-04-19T07:52:40.203Z,864.39
2019-04-19T07:53:38.472Z,864.44
2019-04-19T07:54:33.150Z,864.43
2019-04-19T07:55:33.366Z,864.46
2019-04-19T07:56:44.741Z,864.45
2019-04-19T07:58:52.079Z,864.48
2019-04-19T07:59:55.040Z,864.47
2019-04-19T08:00:56.420Z,864.50
2019-04-19T08:02:01.517Z,864.47
2019-04-19T08:04:48.699Z,864.46
2019-04-19T08:04:58.735Z,864.48
2019-04-19T08:05:55.015Z,864.49
2019-04-19T08:08:59.977Z,864.54
2019-04-19T08:11:02.310Z,864.52
2019-04-19T08:12:03.230Z,864.51
2019-04-19T08:12:53.613Z,864.52
2019-04-19T08:14:00.112Z,864.52
2019-04-19T08:17:56.907Z,864.55
2019-04-19T08:27:33.830Z,864.56
2019-04-19T08:28:33.172Z,864.56
2019-04-19T08:29:35.326Z,864.55
2019-04-19T08:30:35.949Z,864.54
2019-04-19T08:31:25.433Z,864.54
2019-04-19T08:32:25.946Z,864.61
2019-04-19T08:33:25.529Z,864.60
2019-04-19T08:34:25.362Z,864.57
2019-04-19T08:35:25.612Z,864.56
2019-04-19T08:36:32.189Z,864.59
2019-04-19T08:37:29.968Z,864.59
2019-04-19T08:38:28.679Z,864.59
2019-04-19T08:39:42.368Z,864.60
2019-04-19T08:40:45.655Z,864.59
2019-04-19T08:41:39.783Z,864.57
2019-04-19T08:42:46.057Z,864.55
2019-04-19T08:43:41.519Z,864.54
2019-04-19T08:44:38.670Z,864.56
2019-04-19T08:45:26.067Z,864.55
2019-04-19T08:46:23.970Z,864.56
2019-04-19T08:47:32.642Z,864.53
2019-04-19T08:48:33.720Z,864.51
2019-04-19T08:49:30.172Z,864.51
2019-04-19T08:50:22.897Z,864.57
2019-04-19T08:51:28.607Z,864.52
2019-04-19T08:52:27.335Z,864.51
2019-04-19T08:53:36.048Z,864.50
2019-04-19T08:54:41.219Z,864.53
2019-04-19T08:55:41.823Z,864.50
2019-04-19T08:56:33.644Z,864.50
2019-04-19T08:57:25.249Z,864.50
2019-04-19T08:58:37.718Z,864.48
2019-04-19T08:59:45.470Z,864.45
2019-04-19T09:00:52.189Z,864.49
2019-04-19T09:01:47.466Z,864.56
2019-04-19T09:02:38.916Z,864.45
2019-04-19T09:03:45.226Z,864.52
2019-04-19T09:04:39.613Z,864.48
2019-04-19T09:05:36.571Z,864.46
2019-04-19T09:07:32.377Z,864.48
2019-04-19T09:07:49.023Z,864.54
2019-04-19T09:08:37.422Z,864.49
2019-04-19T09:09:48.153Z,864.49
2019-04-19T09:10:41.566Z,864.47
2019-04-19T09:11:35.389Z,864.46
2019-04-19T09:12:34.525Z,864.45
2019-04-19T09:13:44.457Z,864.43
2019-04-19T09:14:39.565Z,864.42
2019-04-19T09:15:34.279Z,864.34
2019-04-19T09:16:36.719Z,864.42
2019-04-19T09:17:50.129Z,864.44
2019-04-19T09:18:46.491Z,864.47
2019-04-19T09:20:07.384Z,864.39
2019-04-19T09:20:38.688Z,864.42
2019-04-19T09:21:34.468Z,864.41
2019-04-19T09:22:35.885Z,864.36
2019-04-19T09:23:31.143Z,864.43
2019-04-19T09:24:31.142Z,864.44
2019-04-19T09:25:29.085Z,864.37
2019-04-19T09:26:38.585Z,864.38
2019-04-19T09:27:42.063Z,864.44
2019-04-19T09:28:44.873Z,864.45
2019-04-19T09:29:39.910Z,864.47
2019-04-19T09:30:36.797Z,864.44
2019-04-19T09:31:31.997Z,864.48
2019-04-19T09:32:23.667Z,864.43
2019-04-19T09:33:24.203Z,864.49
2019-04-19T09:34:20.761Z,864.46
2019-04-19T09:35:20.384Z,864.44
2019-04-19T09:36:20.375Z,864.44
2019-04-19T09:37:30.337Z,864.48
2019-04-19T09:38:29.900Z,864.45
2019-04-19T09:39:31.051Z,864.47
2019-04-19T09:40:28.467Z,864.44
2019-04-19T09:41:24.779Z,864.50
2019-04-19T09:42:31.190Z,864.44
2019-04-19T09:43:32.094Z,864.46
2019-04-19T09:44:25.867Z,864.43
2019-04-19T09:45:16.690Z,864.43
2019-04-19T09:46:16.751Z,864.45
2019-04-19T09:47:16.332Z,864.40
2019-04-19T09:48:36.884Z,864.40
2019-04-19T09:49:35.451Z,864.46
2019-04-19T09:50:33.700Z,864.42
2019-04-19T09:51:33.969Z,864.41
2019-04-19T09:52:39.714Z,864.41
2019-04-19T09:53:44.786Z,864.39
2019-04-19T09:54:41.620Z,864.42
2019-04-19T09:55:33.215Z,864.41
2019-04-19T09:56:33.784Z,864.39
2019-04-19T09:57:32.749Z,864.39
2019-04-19T09:58:30.189Z,864.37
2019-04-19T09:59:24.181Z,864.41
2019-04-19T10:00:18.831Z,864.31
2019-04-19T10:01:14.582Z,864.37
2019-04-19T10:02:22.544Z,864.36
2019-04-19T10:03:24.773Z,864.38
2019-04-19T10:04:14.786Z,864.37
2019-04-19T10:05:14.786Z,864.35
2019-04-19T10:06:14.817Z,864.36
2019-04-19T10:07:14.535Z,864.29
2019-04-19T10:08:13.699Z,864.27
2019-04-19T10:09:17.120Z,864.28
2019-04-19T10:10:15.951Z,864.31
2019-04-19T10:11:12.993Z,864.32
2019-04-19T10:12:13.257Z,864.35
2019-04-19T10:13:13.931Z,864.29
2019-04-19T10:14:13.413Z,864.29
2019-04-19T10:15:12.487Z,864.26
2019-04-19T10:16:12.499Z,864.26
2019-04-19T10:17:13.582Z,864.28
2019-04-19T10:18:12.513Z,864.24
2019-04-19T10:19:13.184Z,864.24
2019-04-19T10:20:12.887Z,864.24
2019-04-19T10:21:19.187Z,864.29
2019-04-19T10:22:12.393Z,864.27
2019-04-19T10:23:11.518Z,864.22
2019-04-19T10:24:14.777Z,864.25
2019-04-19T10:25:11.373Z,864.21
2019-04-19T10:26:13.834Z,864.26
2019-04-19T10:27:11.021Z,864.19
2019-04-19T10:28:11.922Z,864.19
2019-04-19T10:29:19.942Z,864.16
2019-04-19T10:30:11.827Z,864.19
2019-04-19T10:31:11.397Z,864.19
2019-04-19T10:32:10.677Z,864.24
2019-04-19T10:33:10.815Z,864.24
2019-04-19T10:34:10.172Z,864.23
2019-04-19T10:35:11.401Z,864.30
2019-04-19T10:36:10.753Z,864.27
2019-04-19T10:37:10.822Z,864.27
2019-04-19T10:38:09.688Z,864.25
2019-04-19T10:39:09.803Z,864.25
2019-04-19T10:40:09.941Z,864.26
2019-04-19T10:41:09.491Z,864.24
2019-04-19T10:42:10.267Z,864.22
2019-04-19T10:43:09.312Z,864.28
2019-04-19T10:44:15.014Z,864.23
2019-04-19T10:45:10.006Z,864.30
2019-04-19T10:46:09.000Z,864.23
2019-04-19T10:47:10.009Z,864.20
2019-04-19T10:48:09.661Z,864.20
2019-04-19T10:49:15.528Z,864.18
2019-04-19T10:50:20.450Z,864.18
2019-04-19T10:51:09.512Z,864.19
2019-04-19T10:52:07.986Z,864.23
2019-04-19T10:53:08.200Z,864.27
2019-04-19T10:54:08.560Z,864.18
2019-04-19T10:55:08.631Z,864.12
2019-04-19T10:56:08.113Z,864.16
2019-04-19T10:57:08.268Z,864.15
2019-04-19T10:58:07.408Z,864.17
2019-04-19T10:59:07.165Z,864.13
2019-04-19T11:00:07.307Z,864.24
2019-04-19T11:01:07.309Z,864.23
2019-04-19T11:02:08.112Z,864.25
2019-04-19T11:03:06.656Z,864.20
2019-04-19T11:04:06.797Z,864.22
2019-04-19T11:05:07.247Z,864.19
2019-04-19T11:06:06.290Z,864.27
2019-04-19T11:07:07.497Z,864.29
2019-04-19T11:08:06.049Z,864.25
2019-04-19T11:09:06.802Z,864.22
2019-04-19T11:10:05.810Z,864.21
2019-04-19T11:11:05.694Z,864.23
2019-04-19T11:12:06.077Z,864.22
2019-04-19T11:13:05.450Z,864.22
2019-04-19T11:14:06.044Z,864.23
2019-04-19T11:15:06.522Z,864.19
2019-04-19T11:16:05.085Z,864.22
2019-04-19T11:17:05.430Z,864.21
2019-04-19T11:18:05.525Z,864.19
2019-04-19T11:19:15.320Z,864.25
2019-04-19T11:20:21.382Z,864.21
2019-04-19T11:21:05.272Z,864.17
2019-04-19T11:22:05.653Z,864.24
2019-04-19T11:23:04.242Z,864.16
2019-04-19T11:24:05.334Z,864.15
2019-04-19T11:25:04.007Z,864.22
2019-04-19T11:26:04.948Z,864.18
2019-04-19T11:27:03.759Z,864.22
2019-04-19T11:28:04.898Z,864.17
2019-04-19T11:29:03.866Z,864.16
2019-04-19T11:30:03.423Z,864.19
2019-04-19T11:31:04.630Z,864.21
2019-04-19T11:32:03.764Z,864.23
2019-04-19T11:33:03.180Z,864.18
2019-04-19T11:34:02.914Z,864.17
2019-04-19T11:35:03.262Z,864.16
2019-04-19T11:36:03.650Z,864.19
2019-04-19T11:37:02.551Z,864.11
2019-04-19T11:38:02.782Z,864.11
2019-04-19T11:39:03.043Z,864.11
2019-04-19T11:40:03.405Z,864.17
2019-04-19T11:41:03.066Z,864.25
2019-04-19T11:42:03.165Z,864.20
2019-04-19T11:43:01.822Z,864.19
2019-04-19T11:44:04.073Z,864.11
2019-04-19T11:45:01.762Z,864.12
2019-04-19T11:46:02.074Z,864.14
2019-04-19T11:47:03.399Z,864.15
2019-04-19T11:48:01.316Z,864.21
2019-04-19T11:49:01.740Z,864.15
2019-04-19T11:50:02.027Z,864.13
2019-04-19T11:51:00.851Z,864.19
2019-04-19T11:52:00.780Z,864.18
2019-04-19T11:53:01.897Z,864.18
2019-04-19T11:54:00.760Z,864.18
2019-04-19T11:55:02.869Z,864.19
2019-04-19T11:56:00.407Z,864.21
2019-04-19T11:57:05.585Z,864.17
2019-04-19T11:58:00.001Z,864.14
2019-04-19T11:59:00.490Z,864.14
2019-04-19T12:00:01.111Z,864.19
2019-04-19T12:01:00.147Z,864.33
2019-04-19T12:01:59.871Z,864.25
2019-04-19T12:03:00.173Z,864.20
2019-04-19T12:04:00.370Z,864.19
2019-04-19T12:05:01.088Z,864.21
2019-04-19T12:06:00.190Z,864.23
2019-04-19T12:06:58.908Z,864.28
2019-04-19T12:07:58.788Z,864.28
2019-04-19T12:08:58.670Z,864.18
2019-04-19T12:09:58.649Z,864.20
2019-04-19T12:10:58.422Z,864.23
2019-04-19T12:11:58.303Z,864.21
2019-04-19T12:12:59.276Z,864.19
2019-04-19T12:13:58.408Z,864.27
2019-04-19T12:14:57.937Z,864.20
2019-04-19T12:15:58.905Z,864.19
2019-04-19T12:16:57.694Z,864.23
2019-04-19T12:17:57.922Z,864.29
2019-04-19T12:18:58.177Z,864.29
2019-04-19T12:20:02.082Z,864.24
2019-04-19T12:20:57.500Z,864.24
2019-04-19T12:21:57.114Z,864.27
2019-04-19T12:22:57.942Z,864.23
2019-04-19T12:23:56.998Z,864.20
2019-04-19T12:24:57.320Z,864.24
2019-04-19T12:25:57.556Z,864.24
2019-04-19T12:26:57.667Z,864.22
2019-04-19T12:27:57.377Z,864.22
2019-04-19T12:28:57.510Z,864.23
2019-04-19T12:29:57.351Z,864.17
2019-04-19T12:30:58.577Z,864.19
2019-04-19T12:31:55.946Z,864.22
2019-04-19T12:32:55.760Z,864.25
2019-04-19T12:33:55.637Z,864.26
2019-04-19T12:34:55.517Z,864.24
2019-04-19T12:35:55.398Z,864.26
2019-04-19T12:36:55.284Z,864.29
2019-04-19T12:37:57.737Z,864.22
2019-04-19T12:38:55.046Z,864.21
2019-04-19T12:39:54.915Z,864.25
2019-04-19T12:40:56.071Z,864.25
2019-04-19T12:41:55.627Z,864.25
2019-04-19T12:42:55.950Z,864.20
2019-04-19T12:43:54.429Z,864.18
2019-04-19T12:44:54.386Z,864.19
2019-04-19T12:45:55.529Z,864.23
2019-04-19T12:46:55.135Z,864.29
2019-04-19T12:47:55.167Z,864.27
2019-04-19T12:48:54.220Z,864.24
2019-04-19T12:49:59.575Z,864.25
2019-04-19T12:50:53.673Z,864.33
2019-04-19T12:51:54.394Z,864.21
2019-04-19T12:52:53.905Z,864.20
2019-04-19T12:53:54.081Z,864.17
2019-04-19T12:54:54.269Z,864.10
2019-04-19T12:55:53.669Z,864.16